createdAt,value
2019-01-31T00:03:00.849Z,64.00
2019-01-31T00:05:47.800Z,66.35
2019-01-31T00:08:46.136Z,65.80
2019-01-31T00:11:43.848Z,66.81
2019-01-31T00:15:05.037Z,67.12
2019-01-31T00:18:15.114Z,66.15
2019-01-31T00:21:40.102Z,67.11
2019-01-31T00:24:35.910Z,65.73
2019-01-31T00:27:51.744Z,66.11
2019-01-31T00:30:31.911Z,64.33
2019-01-31T00:33:16.897Z,64.17
2019-01-31T00:36:37.604Z,64.92
2019-01-31T00:39:39.873Z,67.11
2019-01-31T00:42:44.171Z,64.10
2019-01-31T00:45:37.113Z,63.70
2019-01-31T00:48:20.849Z,63.69
2019-01-31T00:50:54.583Z,65.84
2019-01-31T00:53:57.632Z,64.47
2019-01-31T00:56:44.530Z,64.08
2019-01-31T01:00:06.440Z,66.06
2019-01-31T01:02:45.210Z,65.13
2019-01-31T01:05:47.258Z,64.69
2019-01-31T01:08:26.558Z,64.98
2019-01-31T01:11:39.230Z,65.55
2019-01-31T01:14:29.783Z,64.90
2019-01-31T01:17:12.177Z,63.82
2019-01-31T01:20:06.753Z,61.89
2019-01-31T01:22:43.357Z,61.25
2019-01-31T01:25:55.177Z,63.53
2019-01-31T01:28:44.540Z,62.25
2019-01-31T01:32:00.042Z,62.48
2019-01-31T01:34:49.365Z,64.43
2019-01-31T01:37:57.873Z,62.71
2019-01-31T01:40:56.818Z,64.15
2019-01-31T01:43:50.239Z,65.40
2019-01-31T01:46:59.894Z,65.63
2019-01-31T01:50:05.050Z,65.68
2019-01-31T01:53:12.246Z,65.03
2019-01-31T01:56:30.807Z,64.48
2019-01-31T01:59:11.562Z,63.93
2019-01-31T02:01:50.930Z,63.55
2019-01-31T02:04:41.774Z,63.54
2019-01-31T02:07:57.980Z,63.44
2019-01-31T02:10:41.012Z,61.97
2019-01-31T02:13:49.877Z,61.01
2019-01-31T02:16:42.753Z,61.21
2019-01-31T02:19:34.529Z,61.19
2019-01-31T02:22:49.091Z,62.30
2019-01-31T02:25:54.706Z,62.42
2019-01-31T02:28:33.655Z,60.25
2019-01-31T02:31:32.025Z,61.20
2019-01-31T02:34:38.170Z,61.64
2019-01-31T02:37:40.959Z,63.25
2019-01-31T02:40:46.035Z,60.96
2019-01-31T02:43:45.754Z,63.58
2019-01-31T02:46:33.758Z,60.75
2019-01-31T02:49:36.998Z,58.28
2019-01-31T02:52:33.393Z,58.54
2019-01-31T02:55:27.851Z,56.86
2019-01-31T02:58:30.367Z,57.47
2019-01-31T03:01:38.708Z,59.97
2019-01-31T03:05:04.225Z,60.82
2019-01-31T03:08:16.934Z,62.89
2019-01-31T03:10:56.853Z,63.14
2019-01-31T03:13:48.420Z,60.93
2019-01-31T03:16:42.961Z,60.13
2019-01-31T03:19:50.079Z,59.69
2019-01-31T03:22:32.793Z,58.45
2019-01-31T03:25:27.004Z,59.32
2019-01-31T03:28:36.810Z,61.57
2019-01-31T03:31:29.833Z,60.92
2019-01-31T03:34:24.152Z,61.18
2019-01-31T03:37:27.559Z,62.56
2019-01-31T03:40:27.760Z,60.74
2019-01-31T03:43:35.880Z,59.73
2019-01-31T03:46:14.337Z,60.13
2019-01-31T03:48:54.968Z,58.47
2019-01-31T03:52:00.228Z,58.27
2019-01-31T03:54:37.168Z,57.54
2019-01-31T03:57:39.144Z,56.12
2019-01-31T04:00:52.185Z,55.19
2019-01-31T04:03:45.896Z,55.58
2019-01-31T04:06:21.982Z,54.96
2019-01-31T04:08:50.554Z,54.88
2019-01-31T04:11:19.110Z,55.36
2019-01-31T04:13:47.695Z,57.25
2019-01-31T04:16:16.259Z,59.36
2019-01-31T04:18:44.844Z,58.85
2019-01-31T04:21:13.676Z,58.10
2019-01-31T04:23:42.235Z,57.42
2019-01-31T04:26:10.810Z,56.96
2019-01-31T04:28:39.458Z,58.17
2019-01-31T04:31:08.116Z,57.26
2019-01-31T04:33:36.691Z,56.78
2019-01-31T04:36:05.367Z,56.79
2019-01-31T04:38:33.945Z,57.09
2019-01-31T04:41:02.525Z,56.89
2019-01-31T04:43:31.088Z,57.83
2019-01-31T04:45:59.772Z,57.34
2019-01-31T04:48:28.333Z,57.81
2019-01-31T04:50:57.148Z,57.00
2019-01-31T04:53:25.704Z,58.81
2019-01-31T04:55:54.295Z,58.84
2019-01-31T04:58:22.851Z,59.00
2019-01-31T05:00:51.418Z,59.31
2019-01-31T05:03:20.072Z,58.18
2019-01-31T05:05:48.742Z,57.90
2019-01-31T05:08:17.626Z,57.47
2019-01-31T05:10:46.223Z,57.38
2019-01-31T05:13:14.850Z,56.87
2019-01-31T05:15:43.509Z,56.71
2019-01-31T05:18:12.224Z,56.89
2019-01-31T05:20:40.874Z,57.40
2019-01-31T05:23:09.509Z,58.25
2019-01-31T05:25:38.220Z,58.90
2019-01-31T05:28:06.934Z,58.10
2019-01-31T05:30:35.776Z,59.24
2019-01-31T05:33:04.506Z,58.09
2019-01-31T05:35:33.212Z,59.32
2019-01-31T05:38:01.820Z,60.01
2019-01-31T05:40:30.728Z,59.40
2019-01-31T05:42:59.374Z,58.74
2019-01-31T05:45:28.102Z,59.17
2019-01-31T05:47:56.843Z,58.30
2019-01-31T05:50:25.489Z,57.97
2019-01-31T05:52:54.149Z,58.50
2019-01-31T05:55:22.871Z,58.52
2019-01-31T05:57:51.527Z,59.14
2019-01-31T06:00:26.631Z,60.59
2019-01-31T06:02:55.234Z,61.24
2019-01-31T06:05:23.903Z,60.63
2019-01-31T06:07:52.651Z,60.92
2019-01-31T06:10:21.314Z,59.97
2019-01-31T06:12:49.977Z,60.92
2019-01-31T06:15:18.866Z,60.06
2019-01-31T06:17:47.392Z,60.19
2019-01-31T06:20:19.048Z,60.13
2019-01-31T06:22:47.651Z,60.75
2019-01-31T06:25:16.247Z,59.51
2019-01-31T06:27:44.861Z,61.25
2019-01-31T06:30:14.854Z,59.48
2019-01-31T06:32:43.434Z,59.66
2019-01-31T06:35:12.213Z,59.11
2019-01-31T06:37:40.898Z,60.42
2019-01-31T06:40:12.029Z,60.34
2019-01-31T06:42:40.699Z,60.68
2019-01-31T06:45:11.991Z,59.96
2019-01-31T06:47:40.675Z,59.14
2019-01-31T06:50:09.425Z,59.11
2019-01-31T06:52:38.042Z,58.76
2019-01-31T06:55:06.912Z,58.30
2019-01-31T06:57:35.515Z,58.70
2019-01-31T07:00:05.914Z,58.88
2019-01-31T07:02:34.574Z,60.02
2019-01-31T07:05:03.219Z,60.82
2019-01-31T07:07:32.835Z,60.15
2019-01-31T07:10:01.405Z,61.28
2019-01-31T07:12:30.105Z,60.25
2019-01-31T07:14:58.631Z,60.55
2019-01-31T07:17:27.203Z,59.69
2019-01-31T07:19:56.622Z,61.03
2019-01-31T07:22:25.398Z,60.29
2019-01-31T07:24:54.215Z,60.07
2019-01-31T07:27:22.781Z,61.12
2019-01-31T07:29:51.379Z,60.48
2019-01-31T07:32:20.324Z,60.07
2019-01-31T07:34:48.907Z,59.84
2019-01-31T07:37:17.505Z,60.98
2019-01-31T07:39:46.080Z,61.25
2019-01-31T07:42:14.902Z,63.32
2019-01-31T07:44:43.527Z,61.66
2019-01-31T07:47:12.111Z,61.60
2019-01-31T07:49:40.688Z,62.16
2019-01-31T07:52:09.518Z,61.98
2019-01-31T07:54:38.114Z,61.39
2019-01-31T07:57:06.749Z,59.87
2019-01-31T07:59:35.335Z,62.86
2019-01-31T08:02:03.923Z,63.77
2019-01-31T08:04:32.503Z,61.37
2019-01-31T08:07:01.155Z,59.62
2019-01-31T08:09:29.968Z,61.52
2019-01-31T08:11:58.567Z,61.52
2019-01-31T08:14:27.133Z,61.84
2019-01-31T08:16:55.921Z,63.48
2019-01-31T08:19:24.493Z,63.85
2019-01-31T08:21:53.063Z,64.29
2019-01-31T08:24:21.693Z,62.46
2019-01-31T08:26:50.257Z,62.63
2019-01-31T08:29:18.837Z,62.92
2019-01-31T08:31:47.787Z,63.44
2019-01-31T08:34:16.370Z,61.66
2019-01-31T08:36:44.938Z,64.63
2019-01-31T08:39:13.513Z,67.04
2019-01-31T08:41:42.080Z,66.60
2019-01-31T08:44:10.668Z,65.85
2019-01-31T08:46:39.241Z,64.28
2019-01-31T08:49:07.816Z,62.92
2019-01-31T08:51:36.391Z,63.41
2019-01-31T08:54:05.255Z,62.75
2019-01-31T08:56:33.827Z,62.02
2019-01-31T08:59:02.397Z,60.77
2019-01-31T09:01:30.973Z,61.23
2019-01-31T09:03:59.621Z,61.05
2019-01-31T09:06:28.163Z,60.02
2019-01-31T09:08:56.973Z,60.48
2019-01-31T09:11:25.557Z,60.32
2019-01-31T09:13:54.139Z,59.39
2019-01-31T09:16:22.964Z,58.84
2019-01-31T09:18:51.539Z,61.37
2019-01-31T09:21:48.517Z,59.74
2019-01-31T09:24:36.166Z,58.93
2019-01-31T09:27:27.987Z,58.83
2019-01-31T09:30:20.619Z,58.67
2019-01-31T09:33:31.094Z,57.75
2019-01-31T09:36:12.333Z,56.94
2019-01-31T09:39:11.312Z,55.80
2019-01-31T09:42:06.850Z,55.93
2019-01-31T09:44:58.682Z,58.22
2019-01-31T09:47:58.557Z,57.42
2019-01-31T09:51:02.673Z,55.51
2019-01-31T09:54:21.707Z,56.04
2019-01-31T09:57:21.981Z,57.16
2019-01-31T10:00:27.275Z,57.36
2019-01-31T10:06:32.272Z,56.00
2019-01-31T10:09:39.045Z,56.73
2019-01-31T10:12:25.263Z,57.09
2019-01-31T10:15:07.018Z,57.86
2019-01-31T10:18:26.515Z,55.33
2019-01-31T10:21:17.175Z,53.48
2019-01-31T10:24:22.897Z,53.61
2019-01-31T10:27:10.785Z,54.90
2019-01-31T10:30:05.331Z,53.77
2019-01-31T10:32:59.960Z,52.38
2019-01-31T10:36:05.931Z,53.09
2019-01-31T10:38:46.744Z,52.97
2019-01-31T10:41:43.836Z,53.08
2019-01-31T10:44:37.683Z,54.84
2019-01-31T10:47:49.454Z,56.39
2019-01-31T10:50:50.691Z,53.90
2019-01-31T10:53:51.174Z,53.64
2019-01-31T10:57:04.599Z,53.56
2019-01-31T10:59:50.257Z,54.73
2019-01-31T11:03:15.135Z,53.82
2019-01-31T11:06:16.630Z,53.00
2019-01-31T11:09:27.212Z,52.96
2019-01-31T11:12:28.256Z,53.19
2019-01-31T11:15:44.280Z,51.93
2019-01-31T11:18:48.782Z,51.52
2019-01-31T11:22:13.429Z,52.69
2019-01-31T11:25:21.758Z,51.44
2019-01-31T11:28:18.067Z,51.45
2019-01-31T11:31:34.044Z,53.82
2019-01-31T11:34:38.527Z,53.00
2019-01-31T11:37:47.716Z,52.27
2019-01-31T11:41:03.491Z,53.51
2019-01-31T11:44:08.843Z,53.43
2019-01-31T11:46:52.000Z,53.05
2019-01-31T11:49:50.004Z,54.27
2019-01-31T11:53:01.074Z,54.13
2019-01-31T11:55:51.978Z,52.93
2019-01-31T11:58:53.918Z,51.82
2019-01-31T12:01:22.523Z,52.03
2019-01-31T12:03:54.039Z,53.25
2019-01-31T12:06:22.624Z,51.80
2019-01-31T12:08:51.191Z,52.82
2019-01-31T12:11:19.760Z,52.04
2019-01-31T12:13:48.367Z,51.41
2019-01-31T12:16:17.116Z,52.28
2019-01-31T12:18:45.719Z,52.18
2019-01-31T12:21:14.608Z,52.76
2019-01-31T12:23:44.833Z,54.41
2019-01-31T12:26:14.005Z,53.03
2019-01-31T12:28:43.812Z,53.21
2019-01-31T12:31:12.733Z,54.32
2019-01-31T12:33:41.485Z,54.67
2019-01-31T12:36:10.069Z,55.13
2019-01-31T12:38:38.633Z,54.91
2019-01-31T12:41:07.373Z,53.80
2019-01-31T12:43:35.925Z,56.00
2019-01-31T12:46:04.660Z,56.06
2019-01-31T12:48:33.257Z,56.58
2019-01-31T12:51:01.852Z,56.86
2019-01-31T12:53:30.423Z,57.44
2019-01-31T12:55:59.014Z,57.47
2019-01-31T12:58:33.803Z,55.99
2019-01-31T13:00:58.223Z,55.24
2019-01-31T13:03:26.757Z,56.43
2019-01-31T13:05:55.345Z,56.92
2019-01-31T13:08:23.911Z,57.88
2019-01-31T13:10:52.492Z,57.92
2019-01-31T13:13:21.370Z,57.68
2019-01-31T13:15:50.103Z,57.78
2019-01-31T13:18:18.629Z,55.82
2019-01-31T13:20:47.209Z,58.05
2019-01-31T13:23:15.850Z,59.70
2019-01-31T13:25:44.528Z,60.03
2019-01-31T13:28:13.087Z,58.44
2019-01-31T13:30:41.658Z,58.56
2019-01-31T13:33:10.323Z,59.46
2019-01-31T13:35:39.222Z,57.85
2019-01-31T13:38:07.816Z,58.52
2019-01-31T13:40:36.451Z,58.62
2019-01-31T13:43:05.217Z,57.25
2019-01-31T13:45:36.047Z,58.23
2019-01-31T13:48:10.986Z,57.80
2019-01-31T13:50:39.616Z,54.94
2019-01-31T13:53:08.933Z,56.60
2019-01-31T13:55:37.609Z,56.66
2019-01-31T13:58:06.384Z,58.31
2019-01-31T14:00:34.966Z,59.38
2019-01-31T14:03:03.565Z,58.89
2019-01-31T14:05:32.207Z,58.98
2019-01-31T14:08:00.877Z,58.86
2019-01-31T14:10:29.579Z,58.45
2019-01-31T14:12:58.110Z,60.33
2019-01-31T14:15:33.637Z,60.19
2019-01-31T14:17:59.724Z,59.47
2019-01-31T14:20:28.728Z,60.27
2019-01-31T14:22:57.285Z,61.83
2019-01-31T14:25:26.103Z,60.02
2019-01-31T14:27:54.758Z,61.84
2019-01-31T14:30:34.782Z,59.07
2019-01-31T14:33:03.885Z,61.56
2019-01-31T14:35:32.669Z,62.56
2019-01-31T14:38:01.225Z,63.38
2019-01-31T14:40:29.898Z,62.73
2019-01-31T14:42:58.533Z,63.41
2019-01-31T14:45:30.024Z,62.79
2019-01-31T14:47:57.509Z,62.89
2019-01-31T14:50:28.737Z,62.44
2019-01-31T14:52:57.561Z,65.48
2019-01-31T14:55:26.234Z,63.81
2019-01-31T14:57:54.933Z,62.03
2019-01-31T15:00:25.343Z,63.17
2019-01-31T15:02:54.156Z,63.63
2019-01-31T15:05:22.737Z,65.60
2019-01-31T15:07:51.387Z,66.40
2019-01-31T15:10:22.345Z,63.26
2019-01-31T15:12:50.981Z,65.85
2019-01-31T15:15:19.608Z,63.35
2019-01-31T15:17:48.248Z,65.36
2019-01-31T15:20:34.474Z,63.17
2019-01-31T15:22:53.038Z,63.63
2019-01-31T15:25:21.693Z,63.91
2019-01-31T15:27:50.270Z,63.59
2019-01-31T15:30:24.477Z,63.95
2019-01-31T15:32:54.653Z,60.99
2019-01-31T15:35:23.224Z,59.61
2019-01-31T15:37:52.137Z,60.69
2019-01-31T15:40:27.599Z,61.01
2019-01-31T15:42:56.168Z,61.65
2019-01-31T15:45:24.822Z,60.25
2019-01-31T15:47:53.400Z,58.84
2019-01-31T15:50:22.941Z,61.41
2019-01-31T15:52:51.570Z,59.05
2019-01-31T15:55:20.740Z,59.15
2019-01-31T15:57:49.369Z,57.97
2019-01-31T16:00:24.995Z,58.93
2019-01-31T16:02:53.569Z,59.11
2019-01-31T16:05:22.225Z,59.21
2019-01-31T16:07:50.954Z,59.57
2019-01-31T16:10:19.645Z,60.09
2019-01-31T16:12:48.268Z,58.92
2019-01-31T16:15:16.987Z,58.82
2019-01-31T16:17:45.598Z,59.87
2019-01-31T16:20:14.267Z,59.25
2019-01-31T16:22:43.011Z,60.15
2019-01-31T16:25:11.714Z,59.44
2019-01-31T16:27:40.374Z,59.47
2019-01-31T16:30:10.920Z,60.02
2019-01-31T16:32:39.623Z,63.10
2019-01-31T16:35:10.313Z,62.49
2019-01-31T16:37:38.950Z,60.99
2019-01-31T16:40:10.350Z,60.68
2019-01-31T16:42:39.018Z,62.44
2019-01-31T16:45:09.545Z,60.62
2019-01-31T16:47:38.488Z,60.13
2019-01-31T16:50:10.407Z,59.70
2019-01-31T16:52:39.321Z,62.16
2019-01-31T16:55:09.524Z,60.76
2019-01-31T16:57:38.194Z,62.58
2019-01-31T17:00:09.120Z,60.04
2019-01-31T17:02:37.807Z,60.76
2019-01-31T17:05:08.687Z,61.28
2019-01-31T17:07:37.347Z,60.98
2019-01-31T17:10:06.544Z,60.19
2019-01-31T17:12:35.879Z,60.94
2019-01-31T17:15:05.496Z,60.85
2019-01-31T17:17:34.184Z,61.00
2019-01-31T17:20:03.073Z,59.63
2019-01-31T17:22:31.672Z,59.96
2019-01-31T17:25:00.355Z,60.23
2019-01-31T17:27:28.889Z,60.27
2019-01-31T17:29:57.519Z,61.02
2019-01-31T17:32:26.248Z,63.60
2019-01-31T17:34:54.932Z,62.27
2019-01-31T17:37:23.902Z,61.23
2019-01-31T17:39:52.966Z,64.21
2019-01-31T17:42:21.907Z,63.59
2019-01-31T17:44:53.252Z,64.64
2019-01-31T17:47:22.050Z,63.81
2019-01-31T17:49:51.517Z,62.72
2019-01-31T17:52:20.069Z,63.21
2019-01-31T17:54:48.814Z,64.07
2019-01-31T17:57:17.392Z,63.77
2019-01-31T17:59:45.973Z,64.72
2019-01-31T18:02:14.831Z,63.79
2019-01-31T18:04:43.490Z,62.00
2019-01-31T18:07:12.280Z,63.61
2019-01-31T18:09:40.956Z,60.47
2019-01-31T18:12:09.508Z,63.60
2019-01-31T18:14:38.089Z,63.05
2019-01-31T18:17:06.834Z,64.39
2019-01-31T18:19:35.814Z,61.46
2019-01-31T18:22:04.711Z,60.52
2019-01-31T18:24:33.351Z,60.67
2019-01-31T18:27:03.584Z,62.27
2019-01-31T18:29:32.192Z,62.45
2019-01-31T18:32:00.767Z,62.82
2019-01-31T18:34:29.642Z,65.37
2019-01-31T18:36:58.330Z,64.52
2019-01-31T18:39:27.039Z,63.49
2019-01-31T18:41:55.594Z,62.99
2019-01-31T18:44:24.266Z,63.73
2019-01-31T18:46:52.831Z,63.57
2019-01-31T18:49:21.405Z,64.35
2019-01-31T18:51:49.999Z,62.89
2019-01-31T18:54:24.472Z,62.24
2019-01-31T18:56:53.030Z,63.01
2019-01-31T18:59:21.939Z,63.87
2019-01-31T19:01:50.597Z,64.47
2019-01-31T19:04:19.210Z,65.80
2019-01-31T19:06:47.769Z,63.97
2019-01-31T19:09:16.357Z,64.28
2019-01-31T19:11:44.942Z,66.47
2019-01-31T19:14:14.497Z,64.73
2019-01-31T19:16:43.155Z,66.10
2019-01-31T19:19:11.738Z,64.12
2019-01-31T19:21:40.420Z,67.09
2019-01-31T19:24:09.046Z,66.16
2019-01-31T19:26:37.797Z,63.58
2019-01-31T19:29:06.449Z,65.08
2019-01-31T19:31:35.158Z,64.17
2019-01-31T19:34:03.763Z,64.40
2019-01-31T19:36:32.347Z,67.73
2019-01-31T19:39:00.913Z,66.78
2019-01-31T19:41:29.609Z,67.20
2019-01-31T19:43:58.169Z,67.13
2019-01-31T19:46:26.761Z,67.29
2019-01-31T19:48:55.348Z,68.39
2019-01-31T19:51:24.083Z,66.58
2019-01-31T19:53:53.721Z,68.33
2019-01-31T19:56:22.316Z,69.91
2019-01-31T19:58:50.964Z,69.21
2019-01-31T20:01:19.706Z,67.97
2019-01-31T20:03:48.532Z,66.88
2019-01-31T20:06:17.212Z,69.33
2019-01-31T20:08:45.855Z,69.04
2019-01-31T20:11:14.514Z,69.19
2019-01-31T20:13:43.932Z,70.10
2019-01-31T20:16:12.619Z,68.76
2019-01-31T20:18:41.195Z,68.98
2019-01-31T20:21:09.849Z,66.37
2019-01-31T20:23:38.424Z,67.55
2019-01-31T20:26:07.057Z,67.43
2019-01-31T20:28:35.655Z,68.50
2019-01-31T20:31:04.490Z,66.77
2019-01-31T20:33:33.067Z,65.14
2019-01-31T20:36:01.641Z,68.54
2019-01-31T20:38:30.229Z,68.25
2019-01-31T20:40:58.802Z,68.36
2019-01-31T20:43:27.396Z,66.76
2019-01-31T20:45:55.958Z,64.97
2019-01-31T20:48:24.595Z,66.09
2019-01-31T20:50:53.160Z,66.36
2019-01-31T20:53:21.750Z,68.31
2019-01-31T20:55:50.433Z,68.95
2019-01-31T20:58:19.023Z,69.65
2019-01-31T21:00:48.149Z,69.52
2019-01-31T21:03:16.803Z,67.52
2019-01-31T21:05:45.461Z,63.97
2019-01-31T21:08:14.762Z,64.28
2019-01-31T21:10:43.452Z,64.54
2019-01-31T21:13:12.393Z,65.07
2019-01-31T21:15:40.977Z,66.42
2019-01-31T21:18:09.625Z,66.80
2019-01-31T21:20:38.282Z,66.33
2019-01-31T21:23:07.593Z,67.79
2019-01-31T21:25:36.398Z,65.21
2019-01-31T21:28:05.543Z,65.80
2019-01-31T21:30:36.922Z,65.99
2019-01-31T21:33:06.217Z,65.70
2019-01-31T21:35:34.941Z,64.74
2019-01-31T21:38:03.653Z,64.39
2019-01-31T21:40:34.150Z,65.75
2019-01-31T21:43:03.289Z,65.79
2019-01-31T21:45:31.988Z,61.92
2019-01-31T21:48:00.542Z,61.86
2019-01-31T21:50:29.227Z,63.23
2019-01-31T21:52:58.109Z,62.45
2019-01-31T21:55:26.848Z,62.91
2019-01-31T21:57:55.745Z,63.61
2019-01-31T22:00:26.557Z,62.62
2019-01-31T22:02:55.288Z,61.56
2019-01-31T22:05:23.964Z,65.66
2019-01-31T22:07:52.602Z,67.00
2019-01-31T22:10:21.927Z,64.31
2019-01-31T22:12:50.690Z,65.15
2019-01-31T22:15:24.514Z,63.92
2019-01-31T22:17:53.236Z,66.21
2019-01-31T22:20:21.755Z,66.56
2019-01-31T22:22:50.388Z,64.64
2019-01-31T22:25:20.242Z,62.60
2019-01-31T22:27:48.819Z,62.56
2019-01-31T22:30:19.862Z,63.20
2019-01-31T22:32:48.499Z,64.74
2019-01-31T22:35:17.171Z,67.26
2019-01-31T22:37:45.735Z,65.80
2019-01-31T22:40:14.623Z,63.43
2019-01-31T22:42:43.253Z,61.53
2019-01-31T22:45:14.177Z,61.89
2019-01-31T22:47:42.743Z,62.15
2019-01-31T22:50:13.015Z,61.62
2019-01-31T22:52:41.573Z,63.49
2019-01-31T22:55:12.399Z,61.28
2019-01-31T22:57:40.972Z,62.03
2019-01-31T23:00:53.165Z,63.53
2019-01-31T23:03:21.723Z,63.19
2019-01-31T23:05:50.402Z,62.02
2019-01-31T23:08:18.994Z,63.47
2019-01-31T23:10:47.668Z,62.49
2019-01-31T23:13:16.247Z,63.45
2019-01-31T23:15:44.907Z,60.89
2019-01-31T23:18:13.490Z,66.20
2019-01-31T23:20:44.340Z,65.47
2019-01-31T23:23:12.531Z,66.24
2019-01-31T23:25:41.104Z,65.24
2019-01-31T23:28:09.934Z,64.15
2019-01-31T23:30:38.543Z,62.49
2019-01-31T23:33:07.191Z,64.35
2019-01-31T23:38:06.512Z,64.50
2019-01-31T23:40:35.101Z,64.48
2019-01-31T23:43:03.860Z,61.82
2019-01-31T23:48:20.173Z,62.66
2019-01-31T23:50:48.772Z,63.89
2019-01-31T23:53:17.394Z,62.76
2019-01-31T23:55:45.968Z,63.74
2019-01-31T23:58:15.841Z,63.62
